Time;durP1;ratioP1;P1;durP2;ratioP2;P2;SDS_P1;SDS_P2;PMS_P1;PMS_P2;Temp;Humidity;BMP_temperature;BMP_pressure;BME280_temperature;BME280_humidity;BME280_pressure;Samples;Min_cycle;Max_cycle;Signal;HPM_P1;HPM_P2
2021/04/18 00:01:40;;;;;;;1.83;1.40;;;12.80;69.70;;;;;;5112880;28;20050;-49
2021/04/18 00:04:06;;;;;;;2.00;1.10;;;12.80;69.80;;;;;;5112753;28;20039;-46
2021/04/18 00:06:36;;;;;;;2.50;1.42;;;12.80;69.80;;;;;;5112574;28;20051;-46
2021/04/18 00:09:07;;;;;;;1.38;1.00;;;12.80;69.80;;;;;;5112918;28;20048;-50
2021/04/18 00:11:32;;;;;;;1.40;1.20;;;12.80;69.80;;;;;;5112734;28;20460;-50
2021/04/18 00:13:59;;;;;;;1.92;1.33;;;12.80;69.80;;;;;;5112733;28;20039;-48
2021/04/18 00:16:25;;;;;;;1.73;1.00;;;12.80;69.80;;;;;;5112461;28;20139;-45
2021/04/18 00:18:51;;;;;;;1.70;1.27;;;12.70;69.70;;;;;;5112141;28;20046;-49
2021/04/18 00:21:17;;;;;;;1.33;1.20;;;12.80;69.80;;;;;;5113026;28;20123;-52
2021/04/18 00:23:43;;;;;;;1.70;1.25;;;12.80;69.80;;;;;;5111036;28;20125;-45
2021/04/18 00:26:08;;;;;;;1.75;1.08;;;12.70;69.80;;;;;;5112911;28;20047;-42
2021/04/18 00:28:34;;;;;;;1.17;0.95;;;12.80;69.90;;;;;;5113169;28;20454;-44
2021/04/18 00:31:00;;;;;;;1.27;1.10;;;12.80;69.90;;;;;;5112550;28;20429;-45
2021/04/18 00:33:26;;;;;;;2.10;1.15;;;12.70;69.80;;;;;;5116261;28;20491;-45
2021/04/18 00:35:52;;;;;;;2.25;1.45;;;12.70;69.80;;;;;;5114715;28;20046;-44
2021/04/18 00:38:19;;;;;;;1.90;1.30;;;12.80;69.90;;;;;;5116178;28;20043;-46
2021/04/18 00:40:44;;;;;;;1.38;1.27;;;12.70;69.90;;;;;;5116352;28;20042;-45
2021/04/18 00:43:11;;;;;;;1.48;1.20;;;12.70;69.90;;;;;;5117039;28;20044;-45
2021/04/18 00:45:37;;;;;;;1.50;1.20;;;12.70;69.90;;;;;;5116684;28;20488;-45
2021/04/18 00:48:04;;;;;;;1.98;1.40;;;12.70;69.90;;;;;;5116568;28;20043;-45
2021/04/18 00:50:33;;;;;;;1.40;1.30;;;12.70;69.90;;;;;;5116870;28;20508;-52
2021/04/18 00:53:03;;;;;;;1.50;1.30;;;12.70;69.90;;;;;;5115863;28;20043;-47
2021/04/18 00:55:30;;;;;;;1.52;1.20;;;12.70;69.90;;;;;;5116216;28;20415;-46
2021/04/18 00:57:57;;;;;;;1.17;0.88;;;12.70;70.00;;;;;;5116421;28;20047;-45
2021/04/18 01:00:23;;;;;;;1.88;1.30;;;12.70;70.00;;;;;;5116642;28;20126;-51
2021/04/18 01:02:49;;;;;;;1.05;0.90;;;12.70;70.00;;;;;;5115481;28;20047;-46
2021/04/18 01:05:16;;;;;;;2.30;1.45;;;12.70;70.00;;;;;;5116114;28;20436;-49
2021/04/18 01:07:41;;;;;;;1.95;1.45;;;12.70;70.00;;;;;;5116545;28;20035;-47
2021/04/18 01:10:11;;;;;;;1.85;1.30;;;12.70;70.00;;;;;;5116128;28;20498;-46
2021/04/18 01:12:37;;;;;;;1.73;1.20;;;12.70;70.00;;;;;;5114475;28;20048;-52
2021/04/18 01:15:05;;;;;;;1.35;1.08;;;12.70;70.10;;;;;;5115940;28;20040;-45
2021/04/18 01:17:30;;;;;;;1.90;1.35;;;12.70;70.00;;;;;;5115981;28;20499;-52
2021/04/18 01:19:57;;;;;;;1.20;1.10;;;12.70;70.00;;;;;;5115804;28;20063;-46
2021/04/18 01:22:22;;;;;;;1.42;1.20;;;12.70;70.10;;;;;;5116088;28;20499;-45
2021/04/18 01:24:48;;;;;;;1.92;1.20;;;12.70;70.10;;;;;;5115771;28;20040;-44
2021/04/18 01:27:16;;;;;;;1.50;1.17;;;12.70;70.10;;;;;;5116083;28;20047;-52
2021/04/18 01:29:41;;;;;;;2.25;1.50;;;12.70;70.10;;;;;;5115804;28;20495;-52
2021/04/18 01:32:08;;;;;;;1.55;1.23;;;12.70;70.10;;;;;;5116015;28;20044;-47
2021/04/18 01:34:38;;;;;;;1.35;1.20;;;12.70;70.10;;;;;;5114542;28;20118;-44
2021/04/18 01:37:04;;;;;;;1.45;1.15;;;12.60;70.00;;;;;;5115570;27;20494;-45
2021/04/18 01:39:30;;;;;;;1.70;1.40;;;12.60;70.00;;;;;;5115954;28;20104;-45
2021/04/18 01:41:56;;;;;;;2.05;1.40;;;12.70;70.10;;;;;;5116034;28;20414;-52
2021/04/18 01:44:21;;;;;;;1.15;0.98;;;12.60;70.10;;;;;;5115386;28;20373;-51
2021/04/18 01:46:47;;;;;;;2.33;1.30;;;12.60;70.10;;;;;;5115864;28;20039;-45
2021/04/18 01:49:13;;;;;;;1.55;1.40;;;12.70;70.10;;;;;;5114942;28;20039;-53
2021/04/18 01:51:39;;;;;;;1.52;1.42;;;12.60;70.10;;;;;;5115692;28;20044;-53
2021/04/18 01:54:05;;;;;;;3.90;1.52;;;12.70;70.20;;;;;;5115409;28;20491;-46
2021/04/18 01:56:32;;;;;;;1.17;1.00;;;12.60;70.10;;;;;;5115226;28;20081;-45
2021/04/18 01:58:58;;;;;;;1.33;1.15;;;12.60;70.10;;;;;;5115460;28;20043;-47
2021/04/18 02:01:24;;;;;;;1.52;1.10;;;12.60;70.10;;;;;;5115324;28;20074;-48
2021/04/18 02:03:49;;;;;;;1.65;1.30;;;12.60;70.10;;;;;;5115643;28;20048;-46
2021/04/18 02:06:15;;;;;;;1.35;1.17;;;12.60;70.10;;;;;;5115329;28;20058;-47
2021/04/18 02:08:41;;;;;;;1.95;1.40;;;12.60;70.10;;;;;;5115149;28;20044;-50
2021/04/18 02:11:07;;;;;;;1.45;1.08;;;12.60;70.10;;;;;;5113130;28;20430;-50
2021/04/18 02:13:33;;;;;;;1.55;1.23;;;12.60;70.20;;;;;;5115093;28;20484;-52
2021/04/18 02:15:59;;;;;;;1.63;1.20;;;12.60;70.20;;;;;;5114713;28;20067;-50
2021/04/18 02:18:24;;;;;;;1.30;1.15;;;12.60;70.20;;;;;;5115281;28;20075;-49
2021/04/18 02:20:51;;;;;;;1.52;1.30;;;12.60;70.20;;;;;;5114623;28;20043;-45
2021/04/18 02:23:17;;;;;;;1.92;1.20;;;12.60;70.20;;;;;;5114936;28;20048;-49
2021/04/18 02:25:42;;;;;;;1.48;1.20;;;12.60;70.20;;;;;;5115007;28;20498;-45
2021/04/18 02:28:08;;;;;;;2.00;1.20;;;12.60;70.20;;;;;;5114553;28;20054;-45
2021/04/18 02:30:35;;;;;;;1.45;1.27;;;12.60;70.20;;;;;;5114387;28;20048;-45
2021/04/18 02:33:01;;;;;;;2.03;1.40;;;12.60;70.20;;;;;;5114613;27;20053;-44
2021/04/18 02:35:27;;;;;;;1.63;1.48;;;12.60;70.20;;;;;;5114131;28;20051;-47
2021/04/18 02:37:54;;;;;;;1.90;1.25;;;12.60;70.20;;;;;;5114344;28;20107;-43
2021/04/18 02:40:20;;;;;;;1.35;1.10;;;12.60;70.20;;;;;;5114798;28;20115;-44
2021/04/18 02:42:46;;;;;;;1.45;1.30;;;12.60;70.20;;;;;;5113365;28;20531;-44
2021/04/18 02:45:13;;;;;;;1.55;1.20;;;12.60;70.20;;;;;;5113415;28;20044;-45
2021/04/18 02:47:39;;;;;;;1.60;1.30;;;12.60;70.20;;;;;;5114454;28;20056;-48
2021/04/18 02:50:07;;;;;;;1.23;1.13;;;12.60;70.20;;;;;;5114642;28;20048;-45
2021/04/18 02:52:32;;;;;;;1.52;1.20;;;12.60;70.30;;;;;;5113922;28;20051;-49
2021/04/18 02:54:58;;;;;;;1.52;1.25;;;12.60;70.30;;;;;;5113717;28;20051;-48
2021/04/18 02:57:24;;;;;;;1.52;1.15;;;12.60;70.30;;;;;;5114629;28;20142;-48
2021/04/18 02:59:50;;;;;;;1.25;1.10;;;12.60;70.30;;;;;;5114107;28;20044;-50
2021/04/18 03:02:16;;;;;;;1.55;1.08;;;12.60;70.30;;;;;;5114423;28;20480;-47
2021/04/18 03:04:41;;;;;;;1.77;1.10;;;12.60;70.30;;;;;;5113678;28;20039;-48
2021/04/18 03:07:07;;;;;;;1.50;1.25;;;12.50;70.20;;;;;;5113432;28;20067;-46
2021/04/18 03:09:32;;;;;;;1.30;1.10;;;12.60;70.30;;;;;;5113779;28;20046;-45
2021/04/18 03:11:58;;;;;;;1.77;1.52;;;12.60;70.30;;;;;;5114039;28;20112;-45
2021/04/18 03:14:24;;;;;;;1.42;0.93;;;12.60;70.30;;;;;;5113875;28;20099;-45
2021/04/18 03:16:50;;;;;;;1.88;1.40;;;12.50;70.30;;;;;;5113881;28;20048;-45
2021/04/18 03:19:15;;;;;;;1.52;1.38;;;12.60;70.40;;;;;;5113692;28;20083;-44
2021/04/18 03:21:42;;;;;;;1.80;1.15;;;12.50;70.30;;;;;;5114077;28;20047;-45
2021/04/18 03:24:08;;;;;;;2.33;1.30;;;12.50;70.30;;;;;;5113524;28;20480;-44
2021/04/18 03:26:33;;;;;;;1.67;1.10;;;12.50;70.30;;;;;;5113558;28;20047;-44
2021/04/18 03:28:59;;;;;;;1.30;1.20;;;12.50;70.30;;;;;;5113855;28;20403;-44
2021/04/18 03:31:25;;;;;;;1.30;1.20;;;12.50;70.30;;;;;;5113680;28;20086;-44
2021/04/18 03:33:50;;;;;;;1.73;1.20;;;12.50;70.30;;;;;;5113522;28;20044;-46
2021/04/18 03:36:16;;;;;;;1.35;1.10;;;12.50;70.30;;;;;;5113260;28;20441;-46
2021/04/18 03:38:42;;;;;;;1.20;1.10;;;12.50;70.30;;;;;;5113197;28;20509;-46
2021/04/18 03:41:08;;;;;;;2.13;1.40;;;12.50;70.30;;;;;;5101386;28;20044;-49
2021/04/18 03:43:34;;;;;;;2.38;1.30;;;12.50;70.40;;;;;;5113387;28;20487;-46
2021/04/18 03:45:59;;;;;;;1.35;1.10;;;12.50;70.40;;;;;;5113674;28;20067;-47
2021/04/18 03:48:25;;;;;;;1.48;1.10;;;12.50;70.30;;;;;;5113246;28;20044;-47
2021/04/18 03:50:51;;;;;;;1.10;0.98;;;12.50;70.30;;;;;;5113147;28;20111;-48
2021/04/18 03:53:17;;;;;;;2.22;1.83;;;12.50;70.40;;;;;;5111202;28;20138;-50
2021/04/18 03:55:42;;;;;;;1.20;1.08;;;12.60;70.40;;;;;;5113248;28;20043;-47
2021/04/18 03:58:08;;;;;;;1.10;1.00;;;12.50;70.40;;;;;;5113285;28;20040;-45
2021/04/18 04:00:34;;;;;;;1.70;1.40;;;12.50;70.40;;;;;;5113566;28;20051;-49
2021/04/18 04:03:00;;;;;;;1.33;1.00;;;12.50;70.40;;;;;;5113085;28;20067;-45
2021/04/18 04:05:26;;;;;;;1.35;1.10;;;12.50;70.40;;;;;;5113040;28;20126;-49
2021/04/18 04:07:52;;;;;;;1.55;1.10;;;12.50;70.40;;;;;;5113043;28;20173;-44
2021/04/18 04:10:17;;;;;;;1.33;1.20;;;12.50;70.40;;;;;;5112864;28;20047;-48
2021/04/18 04:12:43;;;;;;;1.10;1.00;;;12.50;70.40;;;;;;5112425;28;20051;-49
2021/04/18 04:15:09;;;;;;;1.50;1.05;;;12.50;70.40;;;;;;5112752;28;20044;-52
2021/04/18 04:17:35;;;;;;;1.33;1.20;;;12.50;70.50;;;;;;5113152;28;20130;-48
2021/04/18 04:20:01;;;;;;;1.70;1.17;;;12.50;70.60;;;;;;5112604;28;20122;-45
2021/04/18 04:22:27;;;;;;;1.45;1.10;;;12.50;70.40;;;;;;5111939;28;20076;-46
2021/04/18 04:24:53;;;;;;;2.17;1.20;;;12.50;70.50;;;;;;5112013;28;20079;-51
2021/04/18 04:27:20;;;;;;;1.48;1.20;;;12.50;70.50;;;;;;5112888;28;20040;-46
2021/04/18 04:29:47;;;;;;;1.13;0.98;;;12.50;70.50;;;;;;5112815;28;20047;-45
2021/04/18 04:32:13;;;;;;;1.92;1.00;;;12.50;70.50;;;;;;5113295;28;20047;-51
2021/04/18 04:34:40;;;;;;;2.05;1.35;;;12.50;70.50;;;;;;5112644;28;20071;-48
2021/04/18 04:37:05;;;;;;;1.50;1.40;;;12.50;70.50;;;;;;5112064;28;20079;-47
2021/04/18 04:39:31;;;;;;;2.72;1.30;;;12.50;70.50;;;;;;5113215;28;20075;-47
2021/04/18 04:41:57;;;;;;;1.48;1.17;;;12.50;70.50;;;;;;5112240;28;20448;-46
2021/04/18 04:44:22;;;;;;;1.85;1.10;;;12.40;70.40;;;;;;5112905;28;20043;-47
2021/04/18 04:46:49;;;;;;;1.50;1.00;;;12.40;70.50;;;;;;5112575;28;20407;-45
2021/04/18 04:49:15;;;;;;;1.95;1.75;;;12.40;70.50;;;;;;5112977;28;20047;-50
2021/04/18 04:51:40;;;;;;;1.17;1.08;;;12.40;70.50;;;;;;5112575;28;20047;-49
2021/04/18 04:54:06;;;;;;;1.27;1.08;;;12.50;70.50;;;;;;5113159;28;20044;-45
2021/04/18 04:56:32;;;;;;;1.75;1.23;;;12.40;70.50;;;;;;5111986;28;20054;-50
2021/04/18 04:58:58;;;;;;;1.95;1.42;;;12.40;70.50;;;;;;5112468;28;20048;-45
2021/04/18 05:01:25;;;;;;;1.88;1.27;;;12.40;70.50;;;;;;5113033;28;20048;-44
2021/04/18 05:03:50;;;;;;;1.40;1.10;;;12.40;70.50;;;;;;5112502;28;20487;-55
2021/04/18 05:06:17;;;;;;;1.30;1.00;;;12.40;71.20;;;;;;5111931;28;20047;-47
2021/04/18 05:08:42;;;;;;;1.40;1.13;;;12.40;70.50;;;;;;5112610;28;20188;-50
2021/04/18 05:11:08;;;;;;;1.77;1.20;;;12.40;70.50;;;;;;5111971;28;20546;-46
2021/04/18 05:13:34;;;;;;;1.27;1.15;;;12.40;70.60;;;;;;5112045;28;20051;-55
2021/04/18 05:16:00;;;;;;;2.00;1.25;;;12.40;70.60;;;;;;5112616;28;20407;-55
2021/04/18 05:18:25;;;;;;;1.60;1.20;;;12.40;70.60;;;;;;5115026;28;20410;-56
2021/04/18 05:20:51;;;;;;;1.60;1.50;;;12.40;70.60;;;;;;5116194;28;20040;-48
2021/04/18 05:23:18;;;;;;;1.55;1.20;;;12.40;70.60;;;;;;5115940;28;20043;-45
2021/04/18 05:25:44;;;;;;;1.20;1.10;;;12.40;70.60;;;;;;5116085;28;20399;-58
2021/04/18 05:28:10;;;;;;;1.98;1.30;;;12.40;70.60;;;;;;5115440;28;20116;-56
2021/04/18 05:30:36;;;;;;;1.55;1.27;;;12.40;70.60;;;;;;5115880;28;20402;-52
2021/04/18 05:33:01;;;;;;;2.35;1.25;;;12.40;70.60;;;;;;5115739;28;20036;-47
2021/04/18 05:35:27;;;;;;;1.50;1.10;;;12.40;70.60;;;;;;5115715;28;20134;-50
2021/04/18 05:37:53;;;;;;;1.40;1.05;;;12.40;70.70;;;;;;5115714;28;20047;-47
2021/04/18 05:40:18;;;;;;;1.17;1.00;;;12.40;70.70;;;;;;5115106;28;20040;-45
2021/04/18 05:42:44;;;;;;;1.50;1.33;;;12.40;70.70;;;;;;5115252;28;20046;-44
2021/04/18 05:45:10;;;;;;;1.45;1.20;;;12.40;70.70;;;;;;5115536;28;20066;-52
2021/04/18 05:47:36;;;;;;;2.38;1.58;;;12.40;70.70;;;;;;5111650;28;20101;-52
2021/04/18 05:50:03;;;;;;;2.10;1.08;;;12.40;70.70;;;;;;5113712;28;20044;-50
2021/04/18 05:52:29;;;;;;;0.95;0.70;;;12.40;70.70;;;;;;5115769;28;20051;-52
2021/04/18 05:54:55;;;;;;;1.42;0.98;;;12.40;70.70;;;;;;5115715;28;20411;-54
2021/04/18 05:57:21;;;;;;;1.65;1.10;;;12.40;70.70;;;;;;5115784;28;20055;-51
2021/04/18 05:59:46;;;;;;;2.13;1.42;;;12.30;70.70;;;;;;5114480;28;20050;-48
2021/04/18 06:02:12;;;;;;;1.38;1.27;;;12.40;70.70;;;;;;5115572;28;20056;-48
2021/04/18 06:04:38;;;;;;;1.45;1.20;;;12.30;70.70;;;;;;5115514;28;20503;-51
2021/04/18 06:07:04;;;;;;;1.63;1.30;;;12.40;70.70;;;;;;5115238;28;20058;-47
2021/04/18 06:09:30;;;;;;;1.90;1.55;;;12.40;70.70;;;;;;5115399;28;20048;-54
2021/04/18 06:11:56;;;;;;;1.75;1.30;;;12.30;70.70;;;;;;5115001;28;20488;-43
2021/04/18 06:14:22;;;;;;;2.13;1.33;;;12.40;70.80;;;;;;5114967;27;20050;-47
2021/04/18 06:16:49;;;;;;;2.08;1.40;;;12.40;70.80;;;;;;5114891;28;20555;-48
2021/04/18 06:19:16;;;;;;;1.27;1.15;;;12.30;70.70;;;;;;5115030;28;20181;-53
2021/04/18 06:21:42;;;;;;;2.33;1.58;;;12.40;70.90;;;;;;5115210;28;20054;-50
2021/04/18 06:24:09;;;;;;;2.83;1.52;;;12.30;70.80;;;;;;5115054;28;20047;-48
2021/04/18 06:26:34;;;;;;;1.80;1.25;;;12.40;70.90;;;;;;5115252;28;20055;-52
2021/04/18 06:29:00;;;;;;;1.92;1.50;;;12.40;70.90;;;;;;5113360;28;20051;-51
2021/04/18 06:31:26;;;;;;;1.70;1.38;;;12.40;70.90;;;;;;5115229;27;20048;-48
2021/04/18 06:33:51;;;;;;;1.63;1.52;;;12.40;70.90;;;;;;5114741;28;20509;-53
2021/04/18 06:36:17;;;;;;;1.75;1.42;;;12.30;70.80;;;;;;5114560;28;20039;-50
2021/04/18 06:38:43;;;;;;;2.10;1.60;;;12.30;70.80;;;;;;5114678;28;20051;-50
2021/04/18 06:41:14;;;;;;;2.17;1.65;;;12.40;70.90;;;;;;5114196;28;20040;-49
2021/04/18 06:43:43;;;;;;;2.08;1.30;;;12.30;71.50;;;;;;5113168;28;20487;-56
2021/04/18 06:46:12;;;;;;;3.55;1.50;;;12.40;71.00;;;;;;5114351;28;20411;-50
2021/04/18 06:48:38;;;;;;;2.17;1.60;;;12.40;70.90;;;;;;5114796;28;20040;-48
2021/04/18 06:51:04;;;;;;;2.20;1.30;;;12.40;71.00;;;;;;5114501;28;20051;-53
2021/04/18 06:53:29;;;;;;;3.22;1.85;;;12.40;71.00;;;;;;5114683;28;20048;-50
2021/04/18 06:55:56;;;;;;;1.50;1.33;;;12.40;71.00;;;;;;5114345;28;20066;-52
2021/04/18 06:58:22;;;;;;;3.55;1.90;;;12.40;71.00;;;;;;5114047;28;20095;-51
2021/04/18 07:00:47;;;;;;;2.55;1.67;;;12.40;71.00;;;;;;5113965;28;20459;-51
2021/04/18 07:03:15;;;;;;;2.30;2.10;;;12.40;71.00;;;;;;5114432;28;20047;-57
2021/04/18 07:05:46;;;;;;;2.60;1.60;;;12.40;71.00;;;;;;5114477;28;20089;-52
2021/04/18 07:08:32;;;;;;;2.60;1.65;;;12.50;71.00;;;;;;5114531;28;20187;-56
2021/04/18 07:11:17;;;;;;;2.00;1.52;;;12.40;71.00;;;;;;5113812;28;20079;-55
2021/04/18 07:13:44;;;;;;;3.72;2.60;;;12.40;71.00;;;;;;5113304;28;20081;-43
2021/04/18 07:16:32;;;;;;;2.40;1.88;;;12.40;71.00;;;;;;5113583;27;20043;-55
2021/04/18 07:18:58;;;;;;;2.67;1.83;;;12.40;71.00;;;;;;5114139;28;20483;-49
2021/04/18 07:21:47;;;;;;;2.45;1.67;;;12.40;71.00;;;;;;5113970;28;20050;-53
2021/04/18 07:24:13;;;;;;;2.70;2.28;;;12.40;71.00;;;;;;5113841;28;20050;-48
2021/04/18 07:26:39;;;;;;;3.50;2.28;;;12.40;71.00;;;;;;5113762;28;20043;-49
2021/04/18 07:29:11;;;;;;;2.47;1.90;;;12.40;71.00;;;;;;5113861;28;20067;-53
2021/04/18 07:31:37;;;;;;;3.60;2.08;;;12.40;71.10;;;;;;5113483;28;20450;-50
2021/04/18 07:34:06;;;;;;;2.65;1.98;;;12.40;71.00;;;;;;5113532;28;20074;-50
2021/04/18 07:36:34;;;;;;;3.15;2.15;;;12.40;71.00;;;;;;5113696;28;20391;-55
2021/04/18 07:38:59;;;;;;;3.25;1.98;;;12.40;71.00;;;;;;5111916;28;20503;-53
2021/04/18 07:41:26;;;;;;;4.35;2.75;;;12.40;71.70;;;;;;5113280;28;20123;-51
2021/04/18 07:43:53;;;;;;;5.38;3.35;;;12.50;71.10;;;;;;5113750;28;20158;-50
2021/04/18 07:46:20;;;;;;;11.90;6.38;;;12.50;71.00;;;;;;5113194;28;20487;-53
2021/04/18 07:48:47;;;;;;;14.05;6.82;;;13.10;71.60;;;;;;5113296;28;20055;-50
2021/04/18 07:51:13;;;;;;;13.27;5.95;;;13.60;70.20;;;;;;5109520;28;20044;-52
2021/04/18 07:53:40;;;;;;;10.27;6.55;;;13.80;69.20;;;;;;5103213;28;20055;-49
2021/04/18 07:56:10;;;;;;;9.35;6.30;;;13.90;68.60;;;;;;5096892;28;20080;-52
2021/04/18 07:58:38;;;;;;;9.93;5.88;;;13.80;68.10;;;;;;5112093;28;20047;-53
2021/04/18 08:01:05;;;;;;;10.63;6.13;;;13.80;67.90;;;;;;5113301;28;20055;-51
2021/04/18 08:03:31;;;;;;;10.65;6.22;;;13.80;67.70;;;;;;5112780;28;20052;-48
2021/04/18 08:05:57;;;;;;;10.68;6.00;;;13.70;67.60;;;;;;5112091;28;20492;-51
2021/04/18 08:08:22;;;;;;;10.10;6.20;;;13.60;67.60;;;;;;5112198;28;20127;-51
2021/04/18 08:10:50;;;;;;;8.63;5.65;;;13.50;67.60;;;;;;5113268;28;20518;-53
2021/04/18 08:13:20;;;;;;;7.88;5.82;;;13.50;67.70;;;;;;5111774;28;20051;-47
2021/04/18 08:15:46;;;;;;;9.02;6.00;;;13.50;67.80;;;;;;5112773;28;20093;-48
2021/04/18 08:18:14;;;;;;;9.35;6.10;;;13.40;67.80;;;;;;5112335;28;20596;-52
2021/04/18 08:20:46;;;;;;;9.18;5.97;;;13.30;67.90;;;;;;5111844;28;20047;-49
2021/04/18 08:23:16;;;;;;;9.77;5.43;;;13.30;68.00;;;;;;5112944;28;20044;-52
2021/04/18 08:26:16;;;;;;;7.65;5.65;;;13.30;68.10;;;;;;5111745;28;20047;-50
2021/04/18 08:31:20;;;;;;;8.20;4.95;;;13.20;68.40;;;;;;5030171;28;20050;-45
2021/04/18 08:33:47;;;;;;;7.85;5.38;;;13.20;68.40;;;;;;5012270;28;20042;-46
2021/04/18 08:36:28;;;;;;;10.30;5.63;;;13.20;68.50;;;;;;5029412;28;20135;-47
2021/04/18 08:39:06;;;;;;;6.35;5.22;;;13.10;68.50;;;;;;5026290;28;20093;-45
2021/04/18 08:41:56;;;;;;;6.80;4.85;;;13.10;68.70;;;;;;5030244;28;20056;-49
2021/04/18 08:44:37;;;;;;;7.68;5.05;;;13.10;68.70;;;;;;5029459;28;20083;-46
2021/04/18 08:47:12;;;;;;;7.63;5.43;;;13.10;68.80;;;;;;5030076;28;20144;-45
2021/04/18 08:49:38;;;;;;;;;;;13.10;68.80;;;;;;5028905;28;20681;-46
2021/04/18 08:52:05;;;;;;;;;;;13.00;68.90;;;;;;5030666;28;20209;-45
2021/04/18 08:54:40;;;;;;;8.93;5.68;;;13.00;69.00;;;;;;5033537;28;20015;-44
2021/04/18 08:57:10;;;;;;;6.40;5.40;;;13.00;69.00;;;;;;5033935;28;20084;-49
2021/04/18 08:59:37;;;;;;;8.20;4.85;;;13.10;69.10;;;;;;5033352;28;20501;-46
2021/04/18 09:02:08;;;;;;;6.68;4.65;;;13.00;69.10;;;;;;5033248;28;20108;-47
2021/04/18 09:04:42;;;;;;;5.82;4.57;;;13.10;69.20;;;;;;5077589;28;20055;-50
2021/04/18 09:07:11;;;;;;;7.35;5.43;;;13.00;69.20;;;;;;5104979;28;20059;-50
2021/04/18 09:09:37;;;;;;;6.55;5.00;;;13.10;69.30;;;;;;5107492;28;20043;-43
2021/04/18 09:12:05;;;;;;;6.70;4.63;;;13.10;69.30;;;;;;5115787;28;20043;-44
2021/04/18 09:14:36;;;;;;;7.28;4.78;;;13.10;69.40;;;;;;5116208;28;20168;-44
2021/04/18 09:17:17;;;;;;;8.05;5.38;;;13.50;70.50;;;;;;5114809;28;20543;-41
2021/04/18 09:19:54;;;;;;;9.43;5.13;;;15.50;68.70;;;;;;5115057;28;20048;-45
2021/04/18 09:22:26;;;;;;;8.00;5.18;;;15.80;66.10;;;;;;5116123;28;20067;-52
2021/04/18 09:24:52;;;;;;;8.18;5.25;;;15.90;65.00;;;;;;5115963;28;20064;-46
2021/04/18 09:27:24;;;;;;;8.95;4.68;;;15.90;63.50;;;;;;5116277;28;20067;-49
2021/04/18 09:30:01;;;;;;;7.47;4.68;;;15.90;62.40;;;;;;5116246;28;20048;-51
2021/04/18 09:32:29;;;;;;;9.27;5.45;;;15.90;61.60;;;;;;5115862;28;20112;-45
2021/04/18 09:34:55;;;;;;;8.07;5.10;;;15.80;61.30;;;;;;5115596;27;20104;-49
2021/04/18 09:37:33;;;;;;;9.40;4.97;;;15.70;61.10;;;;;;5115728;28;20513;-47
2021/04/18 09:40:15;;;;;;;9.50;4.93;;;15.60;60.80;;;;;;5115793;28;20043;-44
2021/04/18 09:42:44;;;;;;;7.93;5.32;;;15.40;61.10;;;;;;5115855;28;20046;-45
2021/04/18 09:45:12;;;;;;;6.57;4.97;;;15.30;61.40;;;;;;5115951;28;20179;-45
2021/04/18 09:47:38;;;;;;;8.15;4.60;;;15.20;61.60;;;;;;5116015;28;20047;-45
2021/04/18 09:50:19;;;;;;;10.15;5.57;;;15.20;61.80;;;;;;5114198;28;20047;-48
2021/04/18 09:52:46;;;;;;;17.08;6.22;;;15.20;62.00;;;;;;5115490;28;20173;-48
2021/04/18 09:55:27;;;;;;;11.73;5.88;;;15.40;62.00;;;;;;5115639;28;20407;-47
2021/04/18 09:58:00;;;;;;;12.27;5.55;;;15.40;62.20;;;;;;5115766;28;20055;-42
2021/04/18 10:00:29;;;;;;;11.90;5.28;;;15.30;62.40;;;;;;5115799;28;20043;-42
2021/04/18 10:03:13;;;;;;;10.52;5.35;;;15.30;62.70;;;;;;5115700;28;20070;-47
2021/04/18 10:05:58;;;;;;;11.10;5.40;;;15.30;62.90;;;;;;5114868;28;20074;-46
2021/04/18 10:08:28;;;;;;;7.93;4.78;;;15.20;63.20;;;;;;5115367;28;20050;-42
2021/04/18 10:10:58;;;;;;;7.38;5.05;;;15.10;63.40;;;;;;5115229;28;20491;-50
2021/04/18 10:13:43;;;;;;;6.75;4.57;;;15.10;63.70;;;;;;5114862;28;20507;-43
2021/04/18 10:16:11;;;;;;;9.65;5.20;;;15.00;63.80;;;;;;5114936;28;20131;-45
2021/04/18 10:18:39;;;;;;;7.13;4.75;;;15.00;64.00;;;;;;5115044;28;20496;-46
2021/04/18 10:21:22;;;;;;;7.53;4.38;;;15.00;64.20;;;;;;5114602;28;20099;-42
2021/04/18 10:23:49;;;;;;;7.50;4.80;;;14.90;64.30;;;;;;5114756;28;20043;-46
2021/04/18 10:26:22;;;;;;;8.57;3.88;;;14.90;64.50;;;;;;5114741;28;20065;-45
2021/04/18 10:28:51;;;;;;;6.43;4.07;;;14.90;64.70;;;;;;5114728;28;20412;-47
2021/04/18 10:31:19;;;;;;;6.47;4.47;;;14.80;64.80;;;;;;5114732;28;20053;-42
2021/04/18 10:33:45;;;;;;;9.35;4.72;;;14.80;65.00;;;;;;5114883;28;20047;-45
2021/04/18 10:36:12;;;;;;;6.28;4.40;;;14.80;65.10;;;;;;5114323;28;20557;-41
2021/04/18 10:38:38;;;;;;;7.35;3.83;;;14.80;65.30;;;;;;5114052;28;20044;-43
2021/04/18 10:41:06;;;;;;;5.35;3.78;;;14.70;65.30;;;;;;5114029;28;20524;-42
2021/04/18 10:43:32;;;;;;;8.63;4.20;;;14.70;65.50;;;;;;5113953;28;20082;-48
2021/04/18 10:45:58;;;;;;;7.53;4.00;;;14.80;65.60;;;;;;5114101;27;20115;-39
2021/04/18 10:48:24;;;;;;;7.45;3.67;;;14.70;65.70;;;;;;5114346;28;20089;-40
2021/04/18 10:50:50;;;;;;;5.60;3.63;;;14.70;65.80;;;;;;5109131;28;20113;-43
2021/04/18 10:53:15;;;;;;;4.45;3.45;;;14.60;66.00;;;;;;5111775;28;20066;-40
2021/04/18 10:55:42;;;;;;;5.38;3.90;;;14.60;66.10;;;;;;5113141;28;20043;-41
2021/04/18 10:58:08;;;;;;;7.00;3.70;;;14.60;66.10;;;;;;5113701;28;20134;-43
2021/04/18 11:00:34;;;;;;;5.30;3.60;;;14.60;66.30;;;;;;5113498;28;20040;-45
2021/04/18 11:03:00;;;;;;;8.10;3.80;;;14.60;66.30;;;;;;5113505;28;20047;-44
2021/04/18 11:05:26;;;;;;;6.60;3.50;;;14.60;67.10;;;;;;5113189;28;20040;-42
2021/04/18 11:07:51;;;;;;;3.78;3.10;;;14.60;66.50;;;;;;5112999;28;20043;-48
2021/04/18 11:10:17;;;;;;;5.05;3.92;;;14.60;66.60;;;;;;5112956;28;20043;-41
2021/04/18 11:12:43;;;;;;;6.43;3.40;;;14.60;66.70;;;;;;5112624;28;20050;-43
2021/04/18 11:15:10;;;;;;;7.35;3.53;;;14.50;66.70;;;;;;5112874;28;20066;-46
2021/04/18 11:17:37;;;;;;;5.15;3.20;;;14.60;66.90;;;;;;5113643;28;20046;-45
2021/04/18 11:20:06;;;;;;;4.45;3.30;;;14.50;66.90;;;;;;5113616;28;20039;-44
2021/04/18 11:22:31;;;;;;;5.13;3.70;;;14.60;67.00;;;;;;5113702;28;20114;-43
2021/04/18 11:24:59;;;;;;;4.25;3.53;;;14.60;67.10;;;;;;5113544;28;20070;-45
2021/04/18 11:27:28;;;;;;;5.32;3.20;;;14.60;67.10;;;;;;5113283;27;20122;-46
2021/04/18 11:29:54;;;;;;;5.53;3.40;;;14.60;67.20;;;;;;5113878;28;20047;-43
2021/04/18 11:32:20;;;;;;;6.78;3.00;;;14.60;67.20;;;;;;5113891;28;20054;-48
2021/04/18 11:34:46;;;;;;;4.93;3.45;;;14.50;67.20;;;;;;5113894;28;20048;-44
2021/04/18 11:37:12;;;;;;;3.85;2.90;;;14.60;67.30;;;;;;5113344;28;20043;-47
2021/04/18 11:39:38;;;;;;;3.83;2.90;;;14.60;67.30;;;;;;5113345;28;20043;-51
2021/04/18 11:42:04;;;;;;;4.93;3.25;;;14.60;67.40;;;;;;5113570;28;20054;-49
2021/04/18 11:44:30;;;;;;;4.45;2.92;;;14.60;67.40;;;;;;5113696;28;20043;-46
2021/04/18 11:46:55;;;;;;;4.93;3.15;;;14.50;67.30;;;;;;5113206;28;20051;-41
2021/04/18 11:49:22;;;;;;;3.92;2.88;;;14.60;67.50;;;;;;5113292;28;20047;-45
2021/04/18 11:51:48;;;;;;;4.88;3.08;;;14.60;67.50;;;;;;5113263;28;20040;-43
2021/04/18 11:54:14;;;;;;;3.47;2.53;;;14.60;67.50;;;;;;5113232;28;20047;-47
2021/04/18 11:56:39;;;;;;;3.90;2.70;;;14.60;67.60;;;;;;5113241;28;20062;-48
2021/04/18 11:59:05;;;;;;;4.90;2.88;;;14.60;67.60;;;;;;5113038;28;20047;-48
2021/04/18 12:01:32;;;;;;;3.72;2.78;;;14.60;67.60;;;;;;5113431;28;20118;-49
2021/04/18 12:03:58;;;;;;;3.45;2.90;;;14.60;67.60;;;;;;5113403;28;20129;-46
2021/04/18 12:06:24;;;;;;;3.17;2.53;;;14.60;67.60;;;;;;5113001;28;20389;-43
2021/04/18 12:08:49;;;;;;;4.65;2.78;;;14.60;67.70;;;;;;5112980;28;20043;-46
2021/04/18 12:11:15;;;;;;;4.22;2.70;;;14.60;67.70;;;;;;5112814;28;20040;-49
2021/04/18 12:13:41;;;;;;;4.28;2.38;;;14.60;67.70;;;;;;5112948;28;20495;-46
2021/04/18 12:16:08;;;;;;;4.13;3.20;;;14.60;67.70;;;;;;5112935;28;20048;-46
2021/04/18 12:18:34;;;;;;;3.08;2.25;;;14.60;67.70;;;;;;5113047;28;20503;-41
2021/04/18 12:20:59;;;;;;;4.03;3.00;;;14.60;67.80;;;;;;5112536;28;20050;-49
2021/04/18 12:23:25;;;;;;;3.05;2.60;;;14.60;67.80;;;;;;5113107;28;20077;-45
2021/04/18 12:25:51;;;;;;;3.10;2.38;;;14.60;67.80;;;;;;5112834;28;20032;-42
2021/04/18 12:28:16;;;;;;;3.13;2.30;;;14.70;67.90;;;;;;5115188;28;20062;-49
2021/04/18 12:30:42;;;;;;;3.50;2.40;;;14.60;67.90;;;;;;5117232;28;20114;-44
2021/04/18 12:33:08;;;;;;;3.75;2.83;;;14.70;67.90;;;;;;5116694;28;20486;-42
2021/04/18 12:35:34;;;;;;;2.75;2.40;;;14.60;67.90;;;;;;5116255;28;20043;-46
2021/04/18 12:38:00;;;;;;;3.85;2.47;;;14.70;67.90;;;;;;5116576;28;20046;-42
2021/04/18 12:40:26;;;;;;;3.53;2.35;;;14.70;67.90;;;;;;5116020;28;20108;-43
2021/04/18 12:42:51;;;;;;;2.90;2.20;;;14.70;68.00;;;;;;5115771;28;20035;-50
2021/04/18 12:45:17;;;;;;;4.38;2.20;;;14.70;68.00;;;;;;5116469;28;20043;-45
2021/04/18 12:47:45;;;;;;;3.38;2.40;;;14.70;68.00;;;;;;5116577;28;20047;-42
2021/04/18 12:50:11;;;;;;;2.08;1.88;;;14.70;68.00;;;;;;5116393;28;20043;-45
2021/04/18 12:52:37;;;;;;;2.97;2.35;;;14.70;68.00;;;;;;5116138;28;20535;-46